Time;durP1;ratioP1;P1;durP2;ratioP2;P2;SDS_P1;SDS_P2;PMS_P1;PMS_P2;Temp;Humidity;BMP_temperature;BMP_pressure;BME280_temperature;BME280_humidity;BME280_pressure;Samples;Min_cycle;Max_cycle;Signal;HPM_P1;HPM_P2
2021/11/01 00:00:59;;;;;;;3.15;0.47;;;;;;;13.84;88.15;99274.53;5039719;28;20427;-87
2021/11/01 00:03:25;;;;;;;0.30;0.30;;;;;;;13.80;88.48;99277.41;5031879;28;20056;-84
2021/11/01 00:05:52;;;;;;;1.17;0.30;;;;;;;13.78;88.54;99271.34;5032304;28;20042;-84
2021/11/01 00:08:19;;;;;;;0.47;0.20;;;;;;;13.77;88.30;99277.53;5045764;28;20037;-85
2021/11/01 00:10:46;;;;;;;0.75;0.32;;;;;;;13.76;88.26;99278.47;5043398;28;20046;-82
2021/11/01 00:13:12;;;;;;;0.30;0.30;;;;;;;13.73;88.12;99284.72;5034238;28;20049;-82
2021/11/01 00:15:39;;;;;;;0.70;0.20;;;;;;;13.71;87.79;99282.16;5049005;28;20041;-85
2021/11/01 00:18:06;;;;;;;0.65;0.13;;;;;;;13.71;87.06;99274.25;5041992;28;20572;-84
2021/11/01 00:20:32;;;;;;;0.10;0.10;;;;;;;13.68;86.39;99276.16;5021823;28;20063;-86
2021/11/01 00:22:59;;;;;;;0.55;0.10;;;;;;;13.67;86.10;99277.91;5026409;28;20312;-86
2021/11/01 00:25:26;;;;;;;1.60;0.20;;;;;;;13.66;85.80;99270.97;5030894;28;20138;-86
2021/11/01 00:27:53;;;;;;;0.13;0.10;;;;;;;13.65;85.57;99268.38;5044874;28;20049;-86
2021/11/01 00:30:21;;;;;;;0.17;0.17;;;;;;;13.62;85.41;99264.13;5025762;28;20068;-85
2021/11/01 00:32:48;;;;;;;2.40;0.45;;;;;;;13.58;85.30;99246.78;5031149;28;20044;-85
2021/11/01 00:35:16;;;;;;;0.25;0.20;;;;;;;13.57;85.31;99256.44;5041082;28;20036;-87
2021/11/01 00:37:42;;;;;;;0.43;0.22;;;;;;;13.55;85.17;99249.53;5031680;28;20053;-84
2021/11/01 00:40:10;;;;;;;0.22;0.22;;;;;;;13.52;85.50;99252.31;5028388;28;20297;-86
2021/11/01 00:42:37;;;;;;;0.10;0.10;;;;;;;13.49;85.42;99261.19;5042282;28;20107;-85
2021/11/01 00:45:05;;;;;;;1.42;0.20;;;;;;;13.47;85.81;99262.19;5027909;28;20557;-86
2021/11/01 00:47:31;;;;;;;0.10;0.10;;;;;;;13.45;85.66;99274.53;5041769;28;20096;-85
2021/11/01 00:50:00;;;;;;;1.75;0.73;;;;;;;13.43;85.47;99277.22;5030237;28;20041;-85
2021/11/01 00:52:28;;;;;;;0.47;0.20;;;;;;;13.39;85.86;99287.00;5031032;28;20415;-85
2021/11/01 00:54:59;;;;;;;0.80;0.20;;;;;;;13.34;85.99;99294.19;5056965;28;20049;-83
2021/11/01 00:57:27;;;;;;;0.50;0.38;;;;;;;13.32;85.79;99295.19;5026240;28;20060;-84
2021/11/01 00:59:56;;;;;;;3.72;0.73;;;;;;;13.27;85.28;99284.00;5038554;28;20077;-84
2021/11/01 01:02:23;;;;;;;0.32;0.20;;;;;;;13.27;84.98;99281.38;5038372;28;20128;-82
2021/11/01 01:04:50;;;;;;;1.95;0.30;;;;;;;13.24;84.48;99274.47;5046899;28;20632;-85
2021/11/01 01:07:17;;;;;;;2.08;0.30;;;;;;;13.21;83.97;99280.72;5042899;28;20839;-85
2021/11/01 01:09:43;;;;;;;6.72;0.93;;;;;;;13.18;83.82;99299.25;5038086;28;20045;-84
2021/11/01 01:12:11;;;;;;;2.72;0.70;;;;;;;13.17;83.35;99302.78;5029991;28;20080;-82
2021/11/01 01:14:43;;;;;;;2.95;0.22;;;;;;;13.16;83.17;99289.72;5024004;28;20677;-85
2021/11/01 01:17:10;;;;;;;3.70;1.30;;;;;;;13.12;82.50;99277.63;5036414;28;20148;-84
2021/11/01 01:19:45;;;;;;;3.13;0.90;;;;;;;13.10;81.19;99285.56;5025731;28;20051;-83
2021/11/01 01:22:14;;;;;;;5.20;0.75;;;;;;;13.05;81.47;99288.38;5031183;28;20063;-87
2021/11/01 01:24:41;;;;;;;5.28;0.68;;;;;;;13.02;81.58;99287.66;5040259;28;20120;-83
2021/11/01 01:27:08;;;;;;;3.25;0.50;;;;;;;12.98;81.59;99281.66;5029649;28;20135;-83
2021/11/01 01:29:35;;;;;;;8.77;1.00;;;;;;;12.94;81.39;99284.50;5044701;28;20142;-84
2021/11/01 01:32:01;;;;;;;6.20;0.93;;;;;;;12.88;81.44;99286.44;5045814;28;20046;-85
2021/11/01 01:34:28;;;;;;;2.83;0.77;;;;;;;12.87;81.47;99281.28;5031989;28;20041;-85
2021/11/01 01:36:55;;;;;;;3.33;1.33;;;;;;;12.82;81.60;99280.59;5042392;28;20046;-85
2021/11/01 01:39:21;;;;;;;5.13;1.33;;;;;;;12.78;82.18;99279.84;5025674;28;20760;-84
2021/11/01 01:41:48;;;;;;;2.17;0.90;;;;;;;12.76;82.11;99291.34;5038126;28;20045;-85
2021/11/01 01:44:16;;;;;;;3.70;0.60;;;;;;;12.72;82.28;99286.22;5030432;28;20084;-85
2021/11/01 01:46:44;;;;;;;2.00;0.50;;;;;;;12.69;82.25;99291.56;5036145;28;20049;-84
2021/11/01 01:49:10;;;;;;;1.95;0.60;;;;;;;12.67;82.65;99282.94;5027646;28;20431;-85
2021/11/01 01:51:37;;;;;;;2.47;0.70;;;;;;;12.65;83.06;99282.13;5040841;28;20063;-84
2021/11/01 01:54:05;;;;;;;4.47;0.57;;;;;;;12.66;83.09;99290.84;5047174;28;20053;-84
2021/11/01 01:56:32;;;;;;;1.75;0.40;;;;;;;12.65;83.32;99290.00;5044110;28;20165;-84
2021/11/01 01:59:18;;;;;;;3.90;0.98;;;;;;;12.63;83.45;99285.72;5031219;28;20049;-83
2021/11/01 02:01:49;;;;;;;4.47;0.60;;;;;;;12.56;83.47;99288.56;5039431;28;20041;-84
2021/11/01 02:04:23;;;;;;;6.65;1.10;;;;;;;12.51;82.68;99282.66;5023705;28;20053;-84
2021/11/01 02:07:14;;;;;;;4.00;1.60;;;;;;;12.51;82.86;99277.41;5040244;28;20132;-84
2021/11/01 02:10:12;;;;;;;7.78;1.80;;;;;;;12.50;82.77;99282.72;5037250;28;20539;-86
2021/11/01 02:12:52;;;;;;;5.28;1.20;;;;;;;12.49;83.01;99271.38;5039506;28;20053;-84
2021/11/01 02:15:28;;;;;;;7.15;1.05;;;;;;;12.46;82.96;99260.13;5024882;28;20055;-86
2021/11/01 02:17:58;;;;;;;6.50;1.73;;;;;;;12.34;83.13;99267.56;5046660;28;20069;-86
2021/11/01 02:20:37;;;;;;;3.45;1.05;;;;;;;12.22;83.35;99278.53;5034089;28;20133;-87
2021/11/01 02:23:20;;;;;;;7.03;1.17;;;;;;;12.13;83.96;99279.72;5041030;28;20045;-84
2021/11/01 02:25:50;;;;;;;5.28;1.45;;;;;;;12.11;83.84;99276.31;5027687;28;20091;-86
2021/11/01 02:28:25;;;;;;;8.48;1.88;;;;;;;12.06;84.06;99281.72;5044555;28;20044;-86
2021/11/01 02:30:53;;;;;;;7.90;2.00;;;;;;;11.97;84.47;99282.06;5044461;28;20068;-86
2021/11/01 02:33:23;;;;;;;7.32;2.65;;;;;;;11.90;85.00;99277.91;5027785;28;20140;-87
2021/11/01 02:35:53;;;;;;;9.25;1.48;;;;;;;11.78;84.98;99270.50;5043516;28;20088;-85
2021/11/01 02:38:25;;;;;;;8.07;1.95;;;;;;;11.68;85.70;99265.59;5026143;28;20486;-86
2021/11/01 02:40:53;;;;;;;4.88;1.08;;;;;;;11.62;86.31;99263.19;5027683;28;20060;-86
2021/11/01 02:43:20;;;;;;;3.40;1.60;;;;;;;11.60;86.08;99275.47;5023728;28;20059;-86
2021/11/01 02:45:47;;;;;;;6.85;1.85;;;;;;;11.58;86.37;99287.81;5019343;28;20115;-87
2021/11/01 02:48:15;;;;;;;5.18;1.55;;;;;;;11.65;86.28;99288.44;5033120;28;20041;-87
2021/11/01 02:50:41;;;;;;;9.35;2.10;;;;;;;11.65;86.58;99291.06;5040447;28;20046;-84
2021/11/01 02:53:08;;;;;;;7.00;1.77;;;;;;;11.59;86.12;99293.00;5039597;28;20045;-83
2021/11/01 02:55:35;;;;;;;7.28;1.63;;;;;;;11.50;86.63;99293.31;5031218;28;20123;-83
2021/11/01 02:58:02;;;;;;;5.88;2.72;;;;;;;11.41;87.49;99298.88;5032512;28;20048;-85
2021/11/01 03:00:29;;;;;;;9.82;1.67;;;;;;;11.25;87.61;99294.16;5034091;28;20099;-84
2021/11/01 03:02:57;;;;;;;6.47;1.63;;;;;;;11.13;88.33;99302.41;5032019;28;20025;-84
2021/11/01 03:05:26;;;;;;;10.70;1.73;;;;;;;11.03;88.95;99308.84;5033180;28;20062;-85
2021/11/01 03:07:57;;;;;;;6.20;2.05;;;;;;;11.01;89.73;99323.75;5042290;28;20067;-82
2021/11/01 03:10:25;;;;;;;10.75;1.98;;;;;;;10.98;89.61;99309.00;5029156;28;20045;-83
2021/11/01 03:12:54;;;;;;;9.82;1.85;;;;;;;10.98;89.26;99309.00;5041851;28;20053;-85
2021/11/01 03:15:24;;;;;;;5.82;1.90;;;;;;;11.00;89.36;99306.34;5043936;28;20053;-85
2021/11/01 03:17:59;;;;;;;9.82;2.70;;;;;;;11.03;89.33;99306.22;5048433;28;20109;-85
2021/11/01 03:20:31;;;;;;;10.13;1.90;;;;;;;11.11;89.06;99300.75;5041592;28;20053;-85
2021/11/01 03:23:07;;;;;;;11.70;3.72;;;;;;;11.19;88.38;99290.88;5033455;28;20045;-85
2021/11/01 03:25:47;;;;;;;9.35;2.00;;;;;;;11.28;88.00;99313.28;5060237;28;20164;-86
2021/11/01 03:28:14;;;;;;;9.35;2.78;;;;;;;11.31;87.74;99314.03;5027643;28;20409;-84
2021/11/01 03:30:43;;;;;;;7.75;2.25;;;;;;;11.33;87.50;99319.22;5032087;28;20187;-84
2021/11/01 03:33:10;;;;;;;12.35;1.92;;;;;;;11.36;87.14;99321.75;5028371;28;20118;-84
2021/11/01 03:35:39;;;;;;;4.32;1.38;;;;;;;11.37;86.85;99326.94;5033546;28;20053;-86
2021/11/01 03:38:07;;;;;;;10.55;2.28;;;;;;;11.37;86.78;99334.78;5032030;28;20059;-86
2021/11/01 03:40:35;;;;;;;7.45;1.50;;;;;;;11.38;86.69;99331.28;5045425;28;20110;-85
2021/11/01 03:43:05;;;;;;;7.03;1.85;;;;;;;11.37;86.48;99332.19;5029901;28;20059;-87
2021/11/01 03:45:36;;;;;;;9.63;2.15;;;;;;;11.39;86.55;99326.88;5041278;28;20437;-86
2021/11/01 03:48:05;;;;;;;3.88;1.42;;;;;;;11.40;86.43;99334.69;5034052;28;20046;-87
2021/11/01 03:50:38;;;;;;;7.30;1.90;;;;;;;11.41;86.44;99325.06;5044278;28;20664;-85
2021/11/01 03:53:05;;;;;;;12.73;2.10;;;;;;;11.40;86.58;99333.84;5046282;28;20585;-87
2021/11/01 03:55:32;;;;;;;8.02;1.75;;;;;;;11.39;86.31;99325.13;5024129;28;20079;-86
2021/11/01 03:57:59;;;;;;;7.38;2.08;;;;;;;11.39;85.96;99317.28;5057078;28;20056;-86
2021/11/01 04:00:29;;;;;;;5.07;1.40;;;;;;;11.43;85.80;99328.47;5028854;28;21619;-82
2021/11/01 04:02:57;;;;;;;5.53;2.40;;;;;;;11.43;85.64;99336.34;5031521;28;20044;-84
2021/11/01 04:05:25;;;;;;;3.65;1.70;;;;;;;11.42;85.56;99343.34;5044670;28;20045;-86
2021/11/01 04:07:51;;;;;;;28.67;3.58;;;;;;;11.41;85.62;99346.03;5044319;28;20049;-84
2021/11/01 04:10:18;;;;;;;9.07;3.25;;;;;;;11.41;85.17;99339.03;5039184;28;20048;-85
2021/11/01 04:12:45;;;;;;;6.05;1.60;;;;;;;11.40;84.78;99318.13;5025746;28;21461;-87
2021/11/01 04:15:14;;;;;;;7.20;1.60;;;;;;;11.40;84.81;99321.56;5048302;28;20049;-87
2021/11/01 04:17:44;;;;;;;7.78;1.77;;;;;;;11.38;84.80;99310.31;5045739;28;21590;-87
2021/11/01 04:20:27;;;;;;;10.98;2.35;;;;;;;11.38;84.60;99328.66;5043822;28;20060;-85
2021/11/01 04:22:58;;;;;;;6.53;2.33;;;;;;;11.38;84.48;99338.25;5043182;28;20060;-86
2021/11/01 04:25:26;;;;;;;7.13;1.73;;;;;;;11.38;84.55;99333.91;5042669;28;20139;-87
2021/11/01 04:27:53;;;;;;;8.25;2.42;;;;;;;11.37;84.76;99337.41;5046565;28;20729;-86
2021/11/01 04:30:21;;;;;;;16.45;2.00;;;;;;;11.36;84.34;99333.06;5030729;28;20463;-86
2021/11/01 04:32:52;;;;;;;6.25;2.10;;;;;;;11.35;84.35;99331.34;5045037;28;20052;-85
2021/11/01 04:35:22;;;;;;;5.05;1.30;;;;;;;11.35;84.49;99348.84;5032829;28;20052;-86
2021/11/01 04:37:54;;;;;;;16.83;2.05;;;;;;;11.34;84.63;99355.88;5032744;28;20045;-82
2021/11/01 04:40:33;;;;;;;8.38;1.90;;;;;;;11.34;84.49;99347.13;5046494;28;20484;-84
2021/11/01 04:53:58;;;;;;;9.27;2.88;;;;;;;11.23;85.59;99322.16;5032246;28;20034;-84
2021/11/01 04:56:26;;;;;;;7.47;2.60;;;;;;;11.22;85.52;99311.72;5031242;28;20111;-85
2021/11/01 04:58:56;;;;;;;4.18;1.40;;;;;;;11.20;85.49;99330.13;5046531;28;20060;-87
2021/11/01 05:01:33;;;;;;;10.27;2.08;;;;;;;11.19;85.52;99323.16;5042365;28;20104;-88
2021/11/01 05:04:03;;;;;;;12.23;1.65;;;;;;;11.19;85.62;99314.47;5031228;28;20037;-85
2021/11/01 05:06:30;;;;;;;7.53;2.08;;;;;;;11.17;85.48;99317.13;5031926;28;20057;-85
2021/11/01 05:09:05;;;;;;;5.80;1.42;;;;;;;11.17;85.63;99321.50;5038016;28;20083;-85
2021/11/01 05:11:34;;;;;;;5.85;1.40;;;;;;;11.16;85.49;99331.13;5060896;28;20420;-86
2021/11/01 05:14:02;;;;;;;7.18;1.98;;;;;;;11.15;85.85;99324.16;5048812;28;20063;-87
2021/11/01 05:16:40;;;;;;;6.75;1.70;;;;;;;11.14;85.73;99321.59;5032269;28;20039;-85
2021/11/01 05:19:11;;;;;;;5.70;1.25;;;;;;;11.11;85.99;99335.66;5047264;28;20076;-84
2021/11/01 05:21:42;;;;;;;10.30;2.45;;;;;;;11.09;85.98;99319.13;5057307;28;20037;-85
2021/11/01 05:24:12;;;;;;;7.95;2.67;;;;;;;11.06;86.02;99330.56;5048909;28;20034;-83
2021/11/01 05:29:23;;;;;;;4.63;1.20;;;;;;;11.04;86.17;99321.91;5049665;28;20158;-84
2021/11/01 05:31:56;;;;;;;5.88;2.17;;;;;;;11.04;86.50;99327.16;5035099;28;20045;-85
2021/11/01 05:34:24;;;;;;;13.33;2.80;;;;;;;11.03;86.36;99316.69;5043603;28;20072;-87
2021/11/01 05:36:51;;;;;;;9.68;1.60;;;;;;;11.02;86.09;99325.47;5028081;28;20021;-87
2021/11/01 05:39:18;;;;;;;6.13;1.35;;;;;;;11.01;86.18;99329.00;5048691;28;20428;-85
2021/11/01 05:41:44;;;;;;;8.30;2.38;;;;;;;11.01;86.15;99323.75;5032714;28;20049;-83
2021/11/01 05:44:12;;;;;;;6.95;1.85;;;;;;;10.99;85.98;99323.81;5032003;28;20048;-85
2021/11/01 05:46:43;;;;;;;6.75;1.65;;;;;;;10.98;86.28;99324.72;5031062;28;20073;-84
2021/11/01 05:49:10;;;;;;;7.50;1.63;;;;;;;10.98;86.05;99323.88;5044904;28;20041;-84
2021/11/01 05:51:37;;;;;;;14.20;1.92;;;;;;;10.96;85.95;99325.66;5048123;28;20065;-84
2021/11/01 05:54:08;;;;;;;7.80;1.58;;;;;;;10.95;86.00;99327.44;5016479;28;20434;-87
2021/11/01 05:56:41;;;;;;;6.95;1.92;;;;;;;10.93;85.88;99334.47;5050339;28;20041;-87
2021/11/01 06:02:17;;;;;;;5.72;1.52;;;;;;;10.94;85.71;99330.97;5007178;28;20499;-88
2021/11/01 06:05:06;;;;;;;11.48;3.38;;;;;;;10.92;85.93;99327.53;5038284;28;20120;-87
2021/11/01 06:07:40;;;;;;;10.50;1.88;;;;;;;10.92;85.56;99335.38;5032195;28;20045;-87
2021/11/01 06:10:11;;;;;;;10.68;1.90;;;;;;;10.90;85.46;99335.44;5051026;28;20917;-85
2021/11/01 06:15:27;;;;;;;10.10;1.38;;;;;;;10.89;85.45;99341.56;5042889;28;20033;-88
2021/11/01 06:17:55;;;;;;;8.70;1.60;;;;;;;10.88;85.64;99352.09;5049381;28;20055;-85
2021/11/01 06:20:22;;;;;;;12.30;1.83;;;;;;;10.87;85.73;99358.22;5043705;28;20045;-88
2021/11/01 06:22:49;;;;;;;4.43;1.58;;;;;;;10.85;85.48;99378.38;5048490;28;20554;-85
2021/11/01 06:25:18;;;;;;;5.32;1.25;;;;;;;10.84;85.59;99381.91;5027354;28;20076;-87
2021/11/01 06:27:48;;;;;;;4.25;1.38;;;;;;;10.82;85.58;99384.56;5043772;28;20045;-87
2021/11/01 06:30:25;;;;;;;7.50;1.98;;;;;;;10.79;85.98;99387.25;5032939;28;20048;-87
2021/11/01 06:41:41;;;;;;;9.73;2.45;;;;;;;10.72;85.66;99383.13;4996501;28;19983;-84
2021/11/01 06:44:25;;;;;;;8.38;1.92;;;;;;;10.72;85.79;99378.72;5040755;28;20158;-84
2021/11/01 06:49:48;;;;;;;7.25;1.30;;;;;;;10.71;85.26;99389.25;5038831;28;20030;-86
2021/11/01 06:52:47;;;;;;;5.40;1.90;;;;;;;10.71;85.33;99381.41;5037086;28;20725;-84
2021/11/01 07:14:50;;;;;;;4.57;1.67;;;;;;;10.74;82.88;99417.94;5020633;28;19948;-84
2021/11/01 07:17:26;;;;;;;6.05;0.93;;;;;;;10.77;82.71;99417.88;5033226;28;20033;-84
2021/11/01 07:20:07;;;;;;;5.47;1.23;;;;;;;10.78;83.00;99408.25;5032282;28;20049;-83
2021/11/01 07:23:08;;;;;;;8.25;1.95;;;;;;;10.79;82.92;99417.81;5033727;28;20044;-87
2021/11/01 08:23:29;;;;;;;5.22;0.95;;;;;;;11.54;79.01;99441.69;5037480;28;20045;-85
2021/11/01 08:26:16;;;;;;;5.68;1.27;;;;;;;11.66;78.81;99450.91;5047124;28;20103;-86
2021/11/01 08:29:01;;;;;;;7.15;0.98;;;;;;;11.75;78.19;99432.25;5049419;28;20053;-85
2021/11/01 08:40:03;;;;;;;4.27;1.27;;;;;;;11.74;76.92;99451.50;5010331;28;20394;-87
2021/11/01 08:50:57;;;;;;;;;;;;;;;11.85;74.84;99451.16;5032113;28;20493;-89
2021/11/01 09:01:50;;;;;;;5.38;1.00;;;;;;;11.90;75.71;99444.00;5014422;28;20065;-83
2021/11/01 09:04:34;;;;;;;2.95;1.25;;;;;;;11.90;75.31;99445.75;4999079;28;20065;-84
2021/11/01 09:10:29;;;;;;;9.35;1.42;;;;;;;11.87;75.54;99446.69;4945420;28;20038;-84
2021/11/01 09:21:28;;;;;;;;;;;;;;;11.96;73.49;99457.84;5031182;28;20034;-83
2021/11/01 09:24:16;;;;;;;7.72;1.08;;;;;;;11.97;74.06;99467.41;5011519;28;19960;-84
2021/11/01 09:26:45;;;;;;;6.70;1.10;;;;;;;12.03;74.02;99465.44;5022311;28;20050;-86
2021/11/01 09:29:18;;;;;;;5.68;1.00;;;;;;;12.16;73.57;99455.41;5012859;28;20045;-83
2021/11/01 09:37:27;;;;;;;9.32;1.38;;;;;;;12.51;70.71;99444.53;5027575;28;20049;-84
2021/11/01 09:42:50;;;;;;;5.47;1.23;;;;;;;12.57;69.19;99433.84;4997811;28;20076;-88
2021/11/01 09:45:21;;;;;;;10.65;1.83;;;;;;;12.59;68.91;99429.34;5011174;28;20052;-86
2021/11/01 09:47:49;;;;;;;2.00;0.88;;;;;;;12.64;68.39;99434.47;5027355;28;20045;-86
2021/11/01 09:50:20;;;;;;;5.47;0.90;;;;;;;12.68;68.15;99425.53;5027512;28;20048;-84
2021/11/01 09:52:56;;;;;;;5.30;1.52;;;;;;;12.78;68.38;99441.81;5029152;28;20141;-86
2021/11/01 09:55:46;;;;;;;4.60;0.88;;;;;;;13.01;67.25;99440.94;5027752;28;20053;-85
2021/11/01 10:00:59;;;;;;;2.45;0.57;;;;;;;13.22;66.22;99434.84;5035961;28;20026;-83
2021/11/01 10:03:40;;;;;;;4.13;0.75;;;;;;;13.26;63.79;99422.44;5033037;28;20032;-86
2021/11/01 10:06:15;;;;;;;2.67;0.82;;;;;;;13.34;65.24;99424.78;5016220;28;20511;-83
2021/11/01 10:08:58;;;;;;;4.50;0.57;;;;;;;13.40;64.56;99430.66;5032082;28;20057;-85
2021/11/01 10:11:30;;;;;;;2.28;0.65;;;;;;;13.46;64.17;99423.44;5027121;28;20296;-87
2021/11/01 10:14:04;;;;;;;4.00;1.00;;;;;;;13.49;64.21;99418.06;5027848;28;20085;-86
2021/11/01 10:19:44;;;;;;;5.32;0.60;;;;;;;13.48;63.78;99414.59;5024970;28;20038;-86
2021/11/01 10:22:23;;;;;;;5.13;0.80;;;;;;;13.49;62.94;99404.91;5024332;28;20862;-85
2021/11/01 10:24:54;;;;;;;2.50;0.80;;;;;;;13.48;63.27;99406.69;5029578;28;20061;-88
2021/11/01 10:27:37;;;;;;;1.63;0.70;;;;;;;13.47;62.90;99394.47;5019935;28;20462;-86
2021/11/01 10:30:17;;;;;;;5.75;1.20;;;;;;;13.45;63.11;99398.06;5029654;28;20111;-86
2021/11/01 10:32:51;;;;;;;3.05;1.05;;;;;;;13.49;63.15;99407.53;5036144;28;20101;-86
2021/11/01 10:35:29;;;;;;;2.53;0.60;;;;;;;13.50;63.13;99418.00;5031545;28;20049;-84
2021/11/01 10:38:22;;;;;;;3.35;1.35;;;;;;;13.54;63.02;99416.09;5029437;28;20049;-85
2021/11/01 10:41:00;;;;;;;4.32;0.75;;;;;;;13.63;63.08;99420.97;5016855;28;20072;-87
2021/11/01 10:43:56;;;;;;;3.63;0.45;;;;;;;13.64;62.92;99421.84;5033745;28;20056;-85
2021/11/01 10:47:16;;;;;;;3.05;0.63;;;;;;;13.54;62.76;99409.06;5044702;28;20045;-87
2021/11/01 10:58:37;;;;;;;1.38;0.73;;;;;;;13.85;62.33;99425.34;5018039;28;20800;-82
2021/11/01 11:12:22;;;;;;;3.55;0.50;;;;;;;13.73;59.65;99408.31;5031247;28;20524;-88
2021/11/01 11:14:51;;;;;;;5.47;0.63;;;;;;;13.71;60.23;99411.00;5043544;28;20057;-86
2021/11/01 11:17:27;;;;;;;4.07;1.13;;;;;;;13.79;60.70;99412.44;5042837;28;20049;-85
2021/11/01 11:26:30;;;;;;;4.25;0.50;;;;;;;14.01;59.88;99407.13;5029409;28;20041;-85
2021/11/01 11:32:27;;;;;;;2.13;0.70;;;;;;;14.22;59.37;99400.06;4969518;28;20068;-85
2021/11/01 11:47:57;;;;;;;3.80;0.35;;;;;;;14.22;58.29;99410.59;5042635;28;20045;-85
2021/11/01 11:50:29;;;;;;;3.03;0.65;;;;;;;14.44;57.93;99409.66;5032360;28;20059;-86
2021/11/01 11:52:56;;;;;;;2.28;0.80;;;;;;;14.49;56.46;99408.50;5047078;28;20959;-85
2021/11/01 11:55:29;;;;;;;2.20;0.52;;;;;;;14.32;56.64;99408.44;5034011;28;20049;-84
2021/11/01 11:58:07;;;;;;;3.42;0.70;;;;;;;14.35;57.12;99414.41;5049044;28;20033;-86
2021/11/01 12:00:36;;;;;;;4.15;1.27;;;;;;;14.43;57.10;99407.94;5028191;28;20126;-86
2021/11/01 12:03:17;;;;;;;1.67;0.65;;;;;;;14.50;56.52;99407.59;5035604;28;20096;-86
2021/11/01 12:06:14;;;;;;;4.95;0.80;;;;;;;14.47;55.50;99406.88;5045665;28;20053;-85
2021/11/01 12:08:45;;;;;;;3.03;0.80;;;;;;;14.24;55.59;99403.50;5040702;28;20071;-85
2021/11/01 12:11:20;;;;;;;1.80;0.63;;;;;;;14.01;55.66;99407.97;5062057;28;20053;-85
2021/11/01 12:19:19;;;;;;;6.25;0.55;;;;;;;14.09;55.32;99410.28;5030991;28;20037;-86
2021/11/01 12:21:51;;;;;;;2.47;0.75;;;;;;;14.26;54.48;99406.06;5045097;28;20053;-86
2021/11/01 12:24:22;;;;;;;1.95;0.90;;;;;;;14.31;54.58;99409.34;5062589;28;20156;-85
2021/11/01 12:27:04;;;;;;;4.38;0.47;;;;;;;14.34;54.02;99409.19;5031924;28;20049;-87
2021/11/01 12:29:33;;;;;;;4.75;0.85;;;;;;;14.38;53.80;99410.78;5039029;28;20500;-87
2021/11/01 12:32:08;;;;;;;4.20;0.68;;;;;;;14.49;53.94;99405.03;5047659;28;20533;-85
2021/11/01 12:34:41;;;;;;;2.95;0.80;;;;;;;14.65;53.06;99407.84;5029701;28;20057;-85
2021/11/01 12:37:22;;;;;;;2.72;1.60;;;;;;;14.82;53.45;99404.44;5030187;28;20045;-84
2021/11/01 12:40:04;;;;;;;0.68;0.65;;;;;;;15.05;52.22;99400.72;5044247;28;20132;-83
2021/11/01 12:42:58;;;;;;;5.20;0.80;;;;;;;15.05;52.66;99400.72;5049495;28;20063;-87
2021/11/01 12:48:44;;;;;;;4.10;0.70;;;;;;;15.24;53.12;99405.09;5046001;28;20055;-87
2021/11/01 12:57:03;;;;;;;5.53;0.90;;;;;;;15.64;51.88;99392.59;5054365;28;20025;-87
2021/11/01 12:59:43;;;;;;;2.85;0.70;;;;;;;15.66;51.70;99391.59;5045135;28;20037;-84
2021/11/01 13:02:17;;;;;;;4.45;1.17;;;;;;;15.64;51.88;99389.97;5045652;28;20072;-85
2021/11/01 13:04:46;;;;;;;2.78;0.50;;;;;;;15.66;51.24;99388.94;5030594;28;20052;-85
2021/11/01 13:10:00;;;;;;;4.53;0.93;;;;;;;15.60;51.19;99391.03;5028673;28;20057;-82
2021/11/01 13:13:15;;;;;;;3.78;1.08;;;;;;;15.53;51.17;99393.97;5049815;28;20048;-85
2021/11/01 13:18:31;;;;;;;3.55;0.85;;;;;;;15.62;51.06;99405.00;5047059;28;20100;-85
2021/11/01 13:21:00;;;;;;;2.30;0.60;;;;;;;15.76;51.22;99413.09;5025688;28;20049;-85
2021/11/01 13:23:32;;;;;;;3.63;0.55;;;;;;;15.85;50.37;99403.88;5060301;28;20067;-84
2021/11/01 13:29:06;;;;;;;4.13;0.57;;;;;;;15.86;50.14;99398.50;5049445;28;20120;-87
2021/11/01 13:37:22;;;;;;;4.60;0.60;;;;;;;15.64;50.04;99403.16;5052707;28;20059;-86
2021/11/01 13:40:07;;;;;;;1.60;0.30;;;;;;;15.50;50.94;99401.19;5044448;28;20047;-85
2021/11/01 13:42:34;;;;;;;2.25;0.52;;;;;;;15.52;50.83;99400.19;5034971;28;20037;-89
2021/11/01 13:45:15;;;;;;;1.42;0.50;;;;;;;15.59;50.86;99403.41;5031179;28;20041;-88
2021/11/01 13:47:57;;;;;;;2.80;0.52;;;;;;;15.38;50.89;99402.66;5035589;28;20076;-88
2021/11/01 13:51:06;;;;;;;1.60;0.40;;;;;;;15.18;51.98;99406.25;5019107;28;20064;-86
2021/11/01 13:53:38;;;;;;;5.80;1.45;;;;;;;15.01;52.04;99407.06;5014338;28;20138;-86
2021/11/01 13:56:24;;;;;;;3.03;0.38;;;;;;;14.86;52.56;99404.22;5011131;28;20054;-84
2021/11/01 13:59:01;;;;;;;5.28;1.33;;;;;;;14.88;52.46;99399.72;5030646;28;20038;-85
2021/11/01 14:02:03;;;;;;;2.55;0.40;;;;;;;14.78;51.93;99411.63;5004087;28;20864;-85
2021/11/01 14:13:09;;;;;;;6.50;1.23;;;;;;;14.54;52.51;99421.47;5017136;28;20099;-87
2021/11/01 14:30:06;;;;;;;2.13;0.38;;;;;;;14.09;53.39;99409.44;5035879;28;20069;-82
2021/11/01 14:33:05;;;;;;;2.63;0.50;;;;;;;13.99;53.46;99412.47;4986327;28;20037;-85
2021/11/01 15:15:16;;;;;;;5.43;1.92;;;;;;;13.34;53.76;99416.88;5039825;28;20045;-85
2021/11/01 15:20:41;;;;;;;4.63;0.52;;;;;;;13.14;54.36;99433.44;5014846;28;20049;-86
2021/11/01 15:23:23;;;;;;;2.95;0.57;;;;;;;13.06;54.61;99436.34;5025771;28;20037;-84
2021/11/01 15:26:15;;;;;;;1.75;0.40;;;;;;;12.96;55.12;99432.38;5021751;28;20072;-88
2021/11/01 16:18:05;;;;;;;;;;;;;;;11.84;60.75;99453.84;5002760;28;20034;-84
2021/11/01 16:20:32;;;;;;;3.17;0.93;;;;;;;11.88;60.04;99458.06;5018137;28;19984;-85
2021/11/01 16:25:43;;;;;;;7.82;1.35;;;;;;;11.95;60.71;99456.09;5016344;28;20049;-87
2021/11/01 16:28:11;;;;;;;3.40;1.70;;;;;;;11.89;61.13;99463.25;5030535;28;20037;-86
2021/11/01 16:30:49;;;;;;;2.75;0.88;;;;;;;11.77;61.71;99458.41;5026294;28;20049;-84
2021/11/01 16:33:17;;;;;;;4.13;1.80;;;;;;;11.59;62.89;99463.34;5016657;28;20049;-84
2021/11/01 16:35:51;;;;;;;8.85;1.90;;;;;;;11.51;63.28;99464.50;5019184;28;20077;-84
2021/11/01 16:38:21;;;;;;;1.73;0.98;;;;;;;11.37;64.53;99463.19;5026707;28;20416;-84
2021/11/01 16:40:49;;;;;;;2.85;1.00;;;;;;;11.27;65.05;99467.00;5032777;28;20052;-85
2021/11/01 16:43:18;;;;;;;1.77;1.23;;;;;;;11.23;65.42;99468.84;5019953;28;20053;-85
2021/11/01 16:45:50;;;;;;;6.38;2.17;;;;;;;11.22;66.00;99469.78;5037038;28;20046;-85
2021/11/01 16:48:17;;;;;;;3.05;1.33;;;;;;;11.21;66.22;99460.19;5038240;28;20513;-86
2021/11/01 16:50:44;;;;;;;6.78;1.92;;;;;;;11.22;66.56;99464.53;5037276;28;20057;-86
2021/11/01 16:53:16;;;;;;;6.50;1.00;;;;;;;11.20;66.90;99466.31;5024336;28;20045;-85
2021/11/01 16:55:47;;;;;;;3.05;1.50;;;;;;;11.15;67.26;99463.00;5038045;28;20116;-85
2021/11/01 16:58:23;;;;;;;5.68;2.55;;;;;;;11.06;67.77;99461.50;5024863;28;20302;-87
2021/11/01 17:01:02;;;;;;;7.65;1.85;;;;;;;10.97;68.66;99464.41;5040058;28;20068;-85
2021/11/01 17:03:39;;;;;;;3.00;0.93;;;;;;;10.87;69.14;99455.09;5031417;28;20109;-83
2021/11/01 17:06:16;;;;;;;3.75;1.90;;;;;;;10.74;69.45;99452.84;5037449;28;20164;-84
2021/11/01 17:09:15;;;;;;;2.22;1.27;;;;;;;10.65;70.16;99447.00;5021080;28;20050;-87
2021/11/01 17:23:13;;;;;;;5.28;1.88;;;;;;;10.17;72.41;99454.38;5041879;28;20051;-85
2021/11/01 17:25:58;;;;;;;7.30;1.45;;;;;;;10.12;73.51;99450.16;5038765;28;20045;-83
2021/11/01 17:29:07;;;;;;;4.57;1.95;;;;;;;10.09;73.35;99458.97;5060801;28;20511;-87
2021/11/01 17:35:21;;;;;;;3.90;1.55;;;;;;;9.96;74.45;99458.44;5054480;28;20048;-86
2021/11/01 18:40:16;;;;;;;3.70;1.60;;;;;;;9.23;81.62;99490.63;5009961;28;20050;-86
2021/11/01 18:51:32;;;;;;;9.32;3.00;;;;;;;9.03;84.19;99506.72;5036500;28;20736;-85
2021/11/01 18:54:13;;;;;;;4.50;2.55;;;;;;;9.06;83.98;99506.66;5063586;28;20040;-85
2021/11/01 18:56:45;;;;;;;6.93;2.20;;;;;;;9.08;84.13;99510.94;5056864;28;20260;-85
2021/11/01 18:59:18;;;;;;;4.90;1.90;;;;;;;9.12;84.04;99503.91;5062566;28;20385;-84
2021/11/01 19:02:36;;;;;;;;;;;;;;;;;;;;;
2021/11/01 19:05:31;;;;;;;11.43;3.65;;;;;;;9.23;83.95;99498.44;5069726;28;20128;-86
2021/11/01 19:08:25;;;;;;;8.38;2.70;;;;;;;9.29;83.78;99506.16;5061406;28;20067;-85
2021/11/01 20:07:11;;;;;;;7.25;1.80;;;;;;;8.46;90.88;99516.56;5003769;28;20068;-87
2021/11/01 20:12:56;;;;;;;7.13;2.17;;;;;;;8.44;91.68;99511.31;5063563;28;20057;-86
2021/11/01 21:26:16;;;;;;;6.22;2.20;;;;;;;8.15;94.19;99516.19;5037914;28;20044;-85
2021/11/01 21:28:43;;;;;;;5.75;2.35;;;;;;;8.15;94.03;99514.47;5017375;28;20042;-86